createdAt,value
2017-10-11T00:01:02.540Z,87.80
2017-10-11T00:03:30.666Z,89.10
2017-10-11T00:05:58.747Z,90.10
2017-10-11T00:08:27.610Z,90.20
2017-10-11T00:10:55.709Z,88.30
2017-10-11T00:13:24.556Z,89.90
2017-10-11T00:15:52.658Z,88.70
2017-10-11T00:18:20.739Z,87.40
2017-10-11T00:20:49.629Z,89.30
2017-10-11T00:23:17.711Z,89.10
2017-10-11T00:25:46.588Z,90.10
2017-10-11T00:28:14.675Z,88.60
2017-10-11T00:30:43.536Z,89.70
2017-10-11T00:33:11.655Z,89.90
2017-10-11T00:35:39.759Z,90.30
2017-10-11T00:38:07.873Z,90.00
2017-10-11T00:40:36.720Z,88.50
2017-10-11T00:43:04.798Z,86.60
2017-10-11T00:48:02.277Z,88.20
2017-10-11T00:50:30.392Z,89.50
2017-10-11T00:55:27.837Z,86.50
2017-10-11T00:57:55.938Z,85.70
2017-10-11T01:00:24.015Z,85.00
2017-10-11T01:02:52.887Z,86.30
2017-10-11T01:05:20.988Z,85.00
2017-10-11T01:07:49.816Z,85.80
2017-10-11T01:10:17.920Z,86.70
2017-10-11T01:12:46.805Z,89.60
2017-10-11T01:15:15.646Z,89.80
2017-10-11T01:17:44.547Z,89.40
2017-10-11T01:20:12.636Z,89.80
2017-10-11T01:22:40.710Z,88.30
2017-10-11T01:25:09.970Z,88.60
2017-10-11T01:27:38.060Z,86.00
2017-10-11T01:30:06.146Z,84.60
2017-10-11T01:32:34.255Z,85.60
2017-10-11T01:35:02.353Z,85.50
2017-10-11T01:37:31.206Z,87.30
2017-10-11T01:39:59.325Z,86.00
2017-10-11T01:42:27.415Z,85.70
2017-10-11T01:44:55.508Z,84.10
2017-10-11T01:47:23.613Z,86.30
2017-10-11T01:49:51.707Z,85.60
2017-10-11T01:52:19.825Z,87.40
2017-10-11T01:54:47.919Z,87.20
2017-10-11T01:57:16.023Z,88.90
2017-10-11T01:59:45.639Z,88.90
2017-10-11T02:02:13.743Z,88.80
2017-10-11T02:04:42.222Z,88.20
2017-10-11T02:07:10.335Z,87.70
2017-10-11T02:09:38.429Z,88.90
2017-10-11T02:12:07.310Z,88.00
2017-10-11T02:14:36.164Z,88.50
2017-10-11T02:17:04.257Z,88.00
2017-10-11T02:19:32.354Z,87.60
2017-10-11T02:22:01.231Z,88.20
2017-10-11T02:24:30.115Z,88.10
2017-10-11T02:26:58.191Z,85.60
2017-10-11T02:29:26.312Z,84.10
2017-10-11T02:31:54.397Z,84.30
2017-10-11T02:34:22.484Z,83.10
2017-10-11T02:36:50.584Z,83.70
2017-10-11T02:39:18.663Z,82.80
2017-10-11T02:41:48.267Z,83.10
2017-10-11T02:44:17.527Z,82.10
2017-10-11T02:46:45.611Z,82.60
2017-10-11T02:49:13.711Z,81.80
2017-10-11T02:51:42.579Z,83.10
2017-10-11T02:54:10.655Z,81.50
2017-10-11T02:56:38.769Z,82.70
2017-10-11T02:59:06.851Z,83.10
2017-10-11T03:01:35.009Z,82.60
2017-10-11T03:04:03.100Z,82.20
2017-10-11T03:06:31.575Z,83.00
2017-10-11T03:08:59.675Z,82.10
2017-10-11T03:11:28.152Z,81.90
2017-10-11T03:13:56.260Z,82.70
2017-10-11T03:16:24.335Z,81.50
2017-10-11T03:18:53.946Z,81.30
2017-10-11T03:21:22.031Z,80.70
2017-10-11T03:26:19.475Z,81.80
2017-10-11T03:28:47.947Z,82.00
2017-10-11T03:31:16.061Z,82.10
2017-10-11T03:33:45.545Z,82.50
2017-10-11T03:36:13.652Z,83.10
2017-10-11T03:38:42.512Z,83.80
2017-10-11T03:41:10.604Z,82.80
2017-10-11T03:43:39.457Z,82.20
2017-10-11T03:46:07.559Z,82.10
2017-10-11T03:48:36.407Z,81.60
2017-10-11T03:51:04.525Z,82.20
2017-10-11T03:53:32.657Z,81.20
2017-10-11T03:56:00.746Z,80.60
2017-10-11T03:58:28.860Z,80.00
2017-10-11T04:00:56.940Z,80.80
2017-10-11T04:03:25.829Z,80.90
2017-10-11T04:05:53.925Z,82.10
2017-10-11T04:08:22.766Z,81.70
2017-10-11T04:13:21.297Z,80.70
2017-10-11T04:15:49.411Z,81.20
2017-10-11T04:18:17.499Z,84.00
2017-10-11T04:20:45.608Z,84.60
2017-10-11T04:23:13.690Z,83.70
2017-10-11T04:25:41.784Z,82.80
2017-10-11T04:28:09.891Z,82.10
2017-10-11T04:30:38.008Z,81.60
2017-10-11T04:33:06.104Z,81.20
2017-10-11T04:35:34.189Z,81.10
2017-10-11T04:38:03.114Z,82.40
2017-10-11T04:40:31.951Z,85.60
2017-10-11T04:45:29.419Z,87.30
2017-10-11T04:47:57.499Z,88.20
2017-10-11T04:50:25.599Z,88.80
2017-10-11T04:52:53.690Z,89.00
2017-10-11T04:55:22.567Z,90.10
2017-10-11T04:57:50.647Z,90.10
2017-10-11T05:00:20.235Z,90.10
2017-10-11T05:02:48.747Z,90.20
2017-10-11T05:05:17.595Z,90.50
2017-10-11T05:12:45.896Z,91.20
2017-10-11T05:15:14.395Z,90.80
2017-10-11T05:17:42.479Z,90.30
2017-10-11T05:20:10.583Z,88.90
2017-10-11T05:22:38.672Z,86.70
2017-10-11T05:25:06.783Z,87.00
2017-10-11T05:27:34.863Z,87.30
2017-10-11T05:30:02.940Z,87.70
2017-10-11T05:32:31.039Z,87.40
2017-10-11T05:34:59.912Z,88.30
2017-10-11T05:40:26.419Z,90.30
2017-10-11T05:42:54.487Z,90.30
2017-10-11T05:45:22.674Z,90.30
2017-10-11T05:47:51.502Z,90.70
2017-10-11T05:50:19.624Z,90.80
2017-10-11T05:52:47.710Z,90.90
2017-10-11T05:55:15.795Z,91.20
2017-10-11T05:57:43.910Z,91.40
2017-10-11T06:00:12.764Z,91.80
2017-10-11T06:02:40.865Z,91.40
2017-10-11T06:05:09.720Z,91.70
2017-10-11T06:07:38.245Z,91.30
2017-10-11T06:10:07.099Z,91.50
2017-10-11T06:12:35.177Z,91.30
2017-10-11T06:15:03.298Z,91.10
2017-10-11T06:17:31.388Z,91.00
2017-10-11T06:20:00.250Z,91.10
2017-10-11T06:22:28.339Z,91.10
2017-10-11T06:24:56.431Z,91.20
2017-10-11T06:27:24.511Z,91.30
2017-10-11T06:29:52.613Z,91.30
2017-10-11T06:32:20.709Z,90.90
2017-10-11T06:34:49.574Z,90.50
2017-10-11T06:37:17.674Z,89.70
2017-10-11T06:39:46.890Z,88.90
2017-10-11T06:42:15.435Z,88.50
2017-10-11T06:44:44.300Z,88.30
2017-10-11T06:47:12.383Z,87.10
2017-10-11T06:49:40.490Z,87.30
2017-10-11T06:52:08.574Z,86.90
2017-10-11T06:54:36.663Z,86.30
2017-10-11T06:57:04.769Z,84.90
2017-10-11T06:59:32.861Z,84.50
2017-10-11T07:02:00.937Z,83.20
2017-10-11T07:04:29.811Z,82.70
2017-10-11T07:06:57.908Z,81.90
2017-10-11T07:09:26.779Z,81.40
2017-10-11T07:11:54.874Z,80.80
2017-10-11T07:14:23.727Z,80.50
2017-10-11T07:16:51.835Z,78.60
2017-10-11T07:19:20.683Z,78.30
2017-10-11T07:21:48.782Z,78.60
2017-10-11T07:24:17.630Z,79.20
2017-10-11T07:26:45.726Z,76.50
2017-10-11T07:29:13.838Z,76.00
2017-10-11T07:31:41.917Z,76.10
2017-10-11T07:34:10.008Z,73.30
2017-10-11T07:36:38.106Z,70.70
2017-10-11T07:39:09.206Z,68.10
2017-10-11T07:44:08.731Z,67.20
2017-10-11T07:46:36.815Z,68.20
2017-10-11T07:49:04.902Z,65.60
2017-10-11T07:54:03.127Z,64.10
2017-10-11T07:56:31.205Z,64.20
2017-10-11T07:58:59.315Z,64.70
2017-10-11T08:01:27.389Z,63.60
2017-10-11T08:03:55.495Z,64.00
2017-10-11T08:06:23.562Z,63.20
2017-10-11T08:08:51.661Z,62.50
2017-10-11T08:11:19.738Z,62.70
2017-10-11T08:13:47.817Z,62.50
2017-10-11T08:16:16.686Z,64.90
2017-10-11T08:18:44.767Z,65.20
2017-10-11T08:21:12.842Z,66.50
2017-10-11T08:23:42.446Z,67.80
2017-10-11T08:26:10.977Z,67.50
2017-10-11T08:28:40.147Z,66.40
2017-10-11T08:31:09.017Z,68.00
2017-10-11T08:33:37.497Z,65.60
2017-10-11T08:36:05.598Z,65.60
2017-10-11T08:38:34.437Z,67.10
2017-10-11T08:41:03.302Z,66.40
2017-10-11T08:43:31.377Z,64.70
2017-10-11T08:45:59.473Z,65.80
2017-10-11T08:48:27.952Z,65.70
2017-10-11T08:50:56.814Z,65.90
2017-10-11T08:53:24.911Z,64.20
2017-10-11T08:55:53.004Z,64.30
2017-10-11T08:58:21.093Z,63.40
2017-10-11T09:00:49.196Z,64.40
2017-10-11T09:03:17.282Z,65.90
2017-10-11T09:05:46.158Z,64.60
2017-10-11T09:08:14.267Z,66.10
2017-10-11T09:10:42.343Z,64.20
2017-10-11T09:13:11.577Z,63.60
2017-10-11T09:15:39.650Z,64.20
2017-10-11T09:18:08.861Z,64.00
2017-10-11T09:20:37.725Z,63.40
2017-10-11T09:23:05.801Z,61.50
2017-10-11T09:25:33.877Z,58.80
2017-10-11T09:28:02.366Z,58.40
2017-10-11T09:30:31.961Z,57.80
2017-10-11T09:33:00.074Z,55.20
2017-10-11T09:35:28.155Z,54.80
2017-10-11T09:37:56.243Z,52.50
2017-10-11T09:40:24.319Z,52.00
2017-10-11T09:42:52.411Z,52.40
2017-10-11T09:45:20.481Z,50.50
2017-10-11T09:47:48.578Z,51.00
2017-10-11T09:50:17.419Z,49.60
2017-10-11T09:52:45.511Z,47.60
2017-10-11T09:55:13.598Z,43.80
2017-10-11T09:57:41.677Z,43.80
2017-10-11T10:00:09.774Z,43.20
2017-10-11T10:02:38.247Z,40.60
2017-10-11T10:05:07.107Z,39.80
2017-10-11T10:07:35.183Z,39.70
2017-10-11T10:10:03.293Z,39.90
2017-10-11T10:12:31.761Z,41.00
2017-10-11T10:15:00.974Z,41.20
2017-10-11T10:17:29.073Z,41.30
2017-10-11T10:19:57.134Z,41.00
2017-10-11T10:22:25.246Z,40.60
2017-10-11T10:24:53.318Z,37.10
2017-10-11T10:27:21.395Z,34.80
2017-10-11T10:29:49.470Z,30.90
2017-10-11T10:32:17.566Z,28.80
2017-10-11T10:34:46.406Z,30.20
2017-10-11T10:37:14.519Z,30.80
2017-10-11T10:39:42.586Z,31.40
2017-10-11T10:42:10.657Z,33.70
2017-10-11T10:44:38.746Z,35.90
2017-10-11T10:47:07.582Z,37.40
2017-10-11T10:49:35.682Z,37.50
2017-10-11T10:52:03.753Z,38.10
2017-10-11T10:54:31.830Z,39.30
2017-10-11T10:56:59.927Z,40.40
2017-10-11T10:59:28.769Z,40.90
2017-10-11T11:01:56.934Z,42.10
2017-10-11T11:04:25.735Z,40.90
2017-10-11T11:06:53.831Z,41.60
2017-10-11T11:09:21.938Z,42.10
2017-10-11T11:11:50.773Z,42.30
2017-10-11T11:14:18.855Z,42.40
2017-10-11T11:16:47.104Z,41.80
2017-10-11T11:19:15.203Z,41.60
2017-10-11T11:21:43.270Z,42.00
2017-10-11T11:24:11.374Z,42.30
2017-10-11T11:26:40.215Z,41.50
2017-10-11T11:29:08.295Z,41.30
2017-10-11T11:31:36.459Z,41.10
2017-10-11T11:34:05.259Z,41.40
2017-10-11T11:36:33.366Z,42.00
2017-10-11T11:39:02.212Z,39.90
2017-10-11T11:41:30.281Z,39.00
2017-10-11T11:43:59.146Z,36.70
2017-10-11T11:46:27.991Z,31.00
2017-10-11T11:48:56.095Z,32.50
2017-10-11T11:51:24.956Z,33.30
2017-10-11T11:53:53.080Z,29.20
2017-10-11T11:56:21.919Z,29.80
2017-10-11T11:58:50.015Z,32.70
2017-10-11T12:01:18.850Z,36.20
2017-10-11T12:03:46.947Z,37.00
2017-10-11T12:06:15.046Z,37.30
2017-10-11T12:08:43.882Z,39.60
2017-10-11T12:11:11.963Z,39.40
2017-10-11T12:13:40.050Z,39.50
2017-10-11T12:16:08.118Z,39.50
2017-10-11T12:18:36.975Z,39.20
2017-10-11T12:21:05.081Z,39.20
2017-10-11T12:23:33.187Z,39.40
2017-10-11T12:26:02.023Z,39.80
2017-10-11T12:28:30.098Z,40.60
2017-10-11T12:30:58.209Z,40.50
2017-10-11T12:33:26.278Z,39.60
2017-10-11T12:35:54.351Z,41.00
2017-10-11T12:38:22.447Z,40.30
2017-10-11T12:40:51.289Z,41.60
2017-10-11T12:43:19.381Z,40.80
2017-10-11T12:45:48.958Z,42.00
2017-10-11T12:48:17.035Z,40.90
2017-10-11T12:50:45.122Z,40.60
2017-10-11T12:53:13.200Z,40.80
2017-10-11T12:55:41.285Z,41.30
2017-10-11T12:58:09.367Z,41.20
2017-10-11T13:00:37.871Z,41.50
2017-10-11T13:05:35.273Z,41.20
2017-10-11T13:08:03.363Z,41.30
2017-10-11T13:10:31.433Z,41.50
2017-10-11T13:12:59.525Z,40.90
2017-10-11T13:15:27.611Z,41.10
2017-10-11T13:17:56.481Z,40.60
2017-10-11T13:20:26.071Z,42.60
2017-10-11T13:22:54.550Z,41.30
2017-10-11T13:25:22.640Z,41.80
2017-10-11T13:27:50.711Z,41.30
2017-10-11T13:30:18.798Z,41.90
2017-10-11T13:35:16.230Z,42.00
2017-10-11T13:37:44.323Z,42.80
2017-10-11T13:40:12.425Z,43.10
2017-10-11T13:42:40.899Z,43.30
2017-10-11T13:45:09.375Z,43.10
2017-10-11T13:47:37.470Z,43.70
2017-10-11T13:50:06.383Z,44.20
2017-10-11T13:52:34.519Z,44.20
2017-10-11T13:55:02.648Z,44.10
2017-10-11T13:57:30.718Z,44.40
2017-10-11T13:59:58.818Z,44.10
2017-10-11T14:02:26.894Z,44.60
2017-10-11T14:04:55.683Z,45.00
2017-10-11T14:07:23.778Z,45.60
2017-10-11T14:09:52.615Z,45.70
2017-10-11T14:12:20.710Z,44.90
2017-10-11T14:14:48.803Z,45.70
2017-10-11T14:17:16.879Z,45.80
2017-10-11T14:19:45.751Z,46.80
2017-10-11T14:22:13.816Z,45.90
2017-10-11T14:24:41.902Z,46.10
2017-10-11T14:27:09.998Z,45.90
2017-10-11T14:29:38.858Z,47.10
2017-10-11T14:32:06.939Z,47.00
2017-10-11T14:34:35.038Z,46.60
2017-10-11T14:37:03.896Z,47.30
2017-10-11T14:39:31.981Z,46.20
2017-10-11T14:42:00.822Z,47.50
2017-10-11T14:44:28.922Z,46.90
2017-10-11T14:46:57.011Z,46.90
2017-10-11T14:49:26.244Z,47.20
2017-10-11T14:51:54.317Z,47.40
2017-10-11T14:54:22.389Z,48.00
2017-10-11T14:56:50.494Z,47.60
2017-10-11T14:59:19.335Z,48.30
2017-10-11T15:01:48.188Z,48.90
2017-10-11T15:04:16.287Z,49.30
2017-10-11T15:06:45.128Z,50.20
2017-10-11T15:09:13.218Z,50.30
2017-10-11T15:11:41.306Z,50.50
2017-10-11T15:14:09.407Z,50.90
2017-10-11T15:16:38.242Z,51.40
2017-10-11T15:19:06.346Z,51.20
2017-10-11T15:21:34.435Z,51.40
2017-10-11T15:24:03.273Z,52.30
2017-10-11T15:26:31.366Z,51.40
2017-10-11T15:28:59.446Z,51.20
2017-10-11T15:31:27.542Z,51.40
2017-10-11T15:33:56.390Z,51.80
2017-10-11T15:36:24.462Z,51.70
2017-10-11T15:38:52.585Z,51.50
2017-10-11T15:41:21.786Z,51.30
2017-10-11T15:43:50.651Z,52.30
2017-10-11T15:46:18.726Z,51.20
2017-10-11T15:48:46.798Z,51.70
2017-10-11T15:51:14.895Z,51.90
2017-10-11T15:53:42.980Z,52.20
2017-10-11T15:56:11.072Z,52.50
2017-10-11T15:58:39.171Z,53.20
2017-10-11T16:01:07.242Z,52.90
2017-10-11T16:03:35.314Z,53.50
2017-10-11T16:06:03.418Z,53.70
2017-10-11T16:08:32.259Z,55.00
2017-10-11T16:11:00.334Z,54.80
2017-10-11T16:13:28.443Z,54.60
2017-10-11T16:15:57.287Z,55.20
2017-10-11T16:18:25.369Z,54.70
2017-10-11T16:20:53.466Z,54.70
2017-10-11T16:25:51.675Z,55.80
2017-10-11T16:28:20.538Z,55.90
2017-10-11T16:30:48.613Z,55.60
2017-10-11T16:33:16.682Z,55.40
2017-10-11T16:35:44.775Z,54.70
2017-10-11T16:38:13.610Z,55.70
2017-10-11T16:40:41.697Z,54.70
2017-10-11T16:43:09.775Z,54.70
2017-10-11T16:45:37.875Z,54.70
2017-10-11T16:48:05.963Z,54.70
2017-10-11T16:50:34.825Z,55.90
2017-10-11T16:53:02.906Z,55.60
2017-10-11T16:55:30.986Z,55.40
2017-10-11T16:57:59.095Z,55.10
2017-10-11T17:00:27.161Z,54.60
2017-10-11T17:02:55.242Z,54.80
2017-10-11T17:05:23.335Z,54.60
2017-10-11T17:07:51.403Z,54.60
2017-10-11T17:10:19.498Z,55.20
2017-10-11T17:12:47.583Z,54.90
2017-10-11T17:17:45.779Z,54.20
2017-10-11T17:20:13.898Z,53.70
2017-10-11T17:22:43.502Z,53.60
2017-10-11T17:25:11.579Z,53.40
2017-10-11T17:27:40.421Z,54.10
2017-10-11T17:30:08.518Z,53.40
2017-10-11T17:32:37.369Z,53.40
2017-10-11T17:35:05.466Z,53.70
2017-10-11T17:37:34.306Z,53.90
2017-10-11T17:40:02.375Z,53.50
2017-10-11T17:42:30.483Z,53.70
2017-10-11T17:44:58.554Z,53.90
2017-10-11T17:47:26.642Z,54.10
2017-10-11T17:49:55.509Z,54.80
2017-10-11T17:52:23.581Z,54.60
2017-10-11T17:54:51.681Z,55.00
2017-10-11T17:57:20.529Z,55.20
2017-10-11T17:59:49.381Z,54.40
2017-10-11T18:02:17.485Z,54.70
2017-10-11T18:04:45.575Z,54.60
2017-10-11T18:07:14.066Z,54.60
2017-10-11T18:09:42.542Z,55.20
2017-10-11T18:12:10.647Z,55.30
2017-10-11T18:14:39.499Z,57.60
2017-10-11T18:17:07.579Z,56.80
2017-10-11T18:19:36.636Z,54.70
2017-10-11T18:22:04.771Z,55.80
2017-10-11T18:24:32.865Z,55.00
2017-10-11T18:27:02.074Z,55.00
2017-10-11T18:29:30.184Z,55.00
2017-10-11T18:31:58.266Z,55.30
2017-10-11T18:36:57.883Z,57.20
2017-10-11T18:39:26.370Z,57.70
2017-10-11T18:41:54.466Z,58.50
2017-10-11T18:44:23.310Z,59.60
2017-10-11T18:46:52.186Z,58.40
2017-10-11T18:49:20.823Z,58.90
2017-10-11T18:51:49.663Z,58.80
2017-10-11T18:54:17.770Z,58.90
2017-10-11T18:56:45.880Z,58.50
2017-10-11T18:59:13.966Z,58.40
2017-10-11T19:04:11.442Z,59.70
2017-10-11T19:06:39.550Z,59.20
2017-10-11T19:09:08.777Z,58.50
2017-10-11T19:11:36.863Z,59.00
2017-10-11T19:14:05.749Z,60.00
2017-10-11T19:16:34.222Z,59.90
2017-10-11T19:19:02.327Z,60.40
2017-10-11T19:21:31.548Z,61.00
2017-10-11T19:23:59.707Z,61.40
2017-10-11T19:26:27.797Z,61.30
2017-10-11T19:28:55.903Z,61.90
2017-10-11T19:31:24.022Z,61.00
2017-10-11T19:33:52.101Z,60.90
2017-10-11T19:36:20.966Z,60.60
2017-10-11T19:38:49.856Z,62.60
2017-10-11T19:41:19.076Z,61.50
2017-10-11T19:43:47.966Z,62.10
2017-10-11T19:46:17.547Z,62.60
2017-10-11T19:48:46.411Z,62.50
2017-10-11T19:51:14.943Z,63.30
2017-10-11T19:53:43.039Z,63.10
2017-10-11T19:56:11.152Z,62.50
2017-10-11T19:58:39.649Z,62.10
2017-10-11T20:01:08.669Z,62.90
2017-10-11T20:03:36.774Z,62.70
2017-10-11T20:06:06.017Z,62.50
2017-10-11T20:08:34.553Z,62.40
2017-10-11T20:11:03.477Z,61.90
2017-10-11T20:13:31.873Z,62.60
2017-10-11T20:15:59.986Z,62.30
2017-10-11T20:18:28.871Z,62.10
2017-10-11T20:20:56.968Z,61.90
2017-10-11T20:23:25.075Z,61.60
2017-10-11T20:25:53.937Z,62.10
2017-10-11T20:28:22.995Z,61.10
2017-10-11T20:30:51.079Z,61.80
2017-10-11T20:33:19.161Z,62.70
2017-10-11T20:35:47.291Z,62.20
2017-10-11T20:38:17.839Z,61.80
2017-10-11T20:40:45.927Z,60.70
2017-10-11T20:43:15.516Z,62.50
2017-10-11T20:45:43.616Z,63.00
2017-10-11T20:48:11.706Z,62.00
2017-10-11T20:53:10.658Z,60.60
2017-10-11T20:55:38.773Z,60.50
2017-10-11T20:58:07.617Z,60.30
2017-10-11T21:03:05.086Z,60.90
2017-10-11T21:08:02.928Z,62.00
2017-10-11T21:10:31.823Z,62.80
2017-10-11T21:13:00.675Z,60.80
2017-10-11T21:15:30.070Z,61.30
2017-10-11T21:17:58.187Z,62.10
2017-10-11T21:20:27.030Z,61.40
2017-10-11T21:22:55.128Z,61.30
2017-10-11T21:25:23.223Z,61.70
2017-10-11T21:27:51.306Z,63.20
2017-10-11T21:30:19.402Z,62.70
2017-10-11T21:32:48.351Z,64.10
2017-10-11T21:35:17.188Z,65.00
2017-10-11T21:37:46.044Z,65.20
2017-10-11T21:40:14.141Z,63.50
2017-10-11T21:45:11.581Z,62.20
2017-10-11T21:47:39.659Z,62.80
2017-10-11T21:52:37.102Z,64.90
2017-10-11T21:55:05.206Z,63.80
2017-10-11T21:57:34.051Z,64.50
2017-10-11T22:00:02.154Z,65.30
2017-10-11T22:02:30.258Z,65.00
2017-10-11T22:04:58.343Z,64.20
2017-10-11T22:07:27.192Z,65.10
2017-10-11T22:09:55.299Z,66.00
2017-10-11T22:12:23.387Z,64.80
2017-10-11T22:14:51.532Z,65.70
2017-10-11T22:17:19.617Z,67.10
2017-10-11T22:19:48.483Z,67.60
2017-10-11T22:22:16.574Z,69.50
2017-10-11T22:24:44.650Z,70.80
2017-10-11T22:27:13.514Z,69.10
2017-10-11T22:29:41.640Z,69.80
2017-10-11T22:32:10.488Z,69.70
2017-10-11T22:34:38.587Z,70.60
2017-10-11T22:37:07.516Z,72.60
2017-10-11T22:39:35.586Z,73.70
2017-10-11T22:42:03.662Z,73.30
2017-10-11T22:44:31.758Z,74.60
2017-10-11T22:46:59.843Z,73.50
2017-10-11T22:49:28.711Z,75.10
2017-10-11T22:51:56.838Z,74.10
2017-10-11T22:54:26.083Z,75.00
2017-10-11T22:59:23.518Z,75.30
2017-10-11T23:01:51.612Z,75.50
2017-10-11T23:04:20.470Z,76.70
2017-10-11T23:06:48.579Z,76.50
2017-10-11T23:11:46.427Z,75.70
2017-10-11T23:14:14.512Z,76.10
2017-10-11T23:16:43.381Z,76.00
2017-10-11T23:19:11.460Z,76.00
2017-10-11T23:21:40.302Z,77.80
2017-10-11T23:24:10.263Z,76.30
2017-10-11T23:26:39.847Z,76.60
2017-10-11T23:29:09.082Z,77.10
2017-10-11T23:34:06.542Z,77.70
2017-10-11T23:36:35.378Z,78.80
2017-10-11T23:39:03.474Z,78.90
2017-10-11T23:41:32.339Z,80.40
2017-10-11T23:44:00.454Z,79.90
2017-10-11T23:46:28.536Z,79.90
2017-10-11T23:48:57.764Z,79.50
2017-10-11T23:51:27.395Z,80.00
2017-10-11T23:53:55.468Z,80.30
2017-10-11T23:56:23.548Z,81.10
2017-10-11T23:58:51.655Z,81.70
